sensor_id;sensor_type;location;lat;lon;timestamp;P1;durP1;ratioP1;P2;durP2;ratioP2
53245;SDS011;39569;51.090;-1.786;2022-10-30T00:00:42;39.92;;;10.43;;
53245;SDS011;39569;51.090;-1.786;2022-10-30T00:03:11;31.98;;;8.43;;
53245;SDS011;39569;51.090;-1.786;2022-10-30T00:05:40;37.92;;;9.02;;
53245;SDS011;39569;51.090;-1.786;2022-10-30T00:08:08;69.65;;;10.52;;
53245;SDS011;39569;51.090;-1.786;2022-10-30T00:10:36;50.85;;;9.20;;
53245;SDS011;39569;51.090;-1.786;2022-10-30T00:13:03;40.47;;;10.65;;
53245;SDS011;39569;51.090;-1.786;2022-10-30T00:15:30;44.15;;;11.30;;
53245;SDS011;39569;51.090;-1.786;2022-10-30T00:17:57;38.13;;;10.27;;
53245;SDS011;39569;51.090;-1.786;2022-10-30T00:20:25;31.42;;;7.20;;
53245;SDS011;39569;51.090;-1.786;2022-10-30T00:22:52;50.70;;;9.15;;
53245;SDS011;39569;51.090;-1.786;2022-10-30T00:25:19;31.45;;;9.15;;
53245;SDS011;39569;51.090;-1.786;2022-10-30T00:27:46;42.30;;;9.35;;
53245;SDS011;39569;51.090;-1.786;2022-10-30T00:30:12;40.05;;;9.88;;
53245;SDS011;39569;51.090;-1.786;2022-10-30T00:32:40;46.90;;;10.10;;
53245;SDS011;39569;51.090;-1.786;2022-10-30T00:35:08;38.97;;;9.02;;
53245;SDS011;39569;51.090;-1.786;2022-10-30T00:37:36;38.72;;;8.57;;
53245;SDS011;39569;51.090;-1.786;2022-10-30T00:40:04;32.42;;;7.85;;
53245;SDS011;39569;51.090;-1.786;2022-10-30T00:42:32;36.83;;;7.88;;
53245;SDS011;39569;51.090;-1.786;2022-10-30T00:44:59;37.92;;;8.13;;
53245;SDS011;39569;51.090;-1.786;2022-10-30T00:47:26;53.22;;;8.00;;
53245;SDS011;39569;51.090;-1.786;2022-10-30T00:49:57;34.47;;;8.35;;
53245;SDS011;39569;51.090;-1.786;2022-10-30T00:52:27;27.88;;;6.97;;
53245;SDS011;39569;51.090;-1.786;2022-10-30T00:54:59;40.97;;;7.65;;
53245;SDS011;39569;51.090;-1.786;2022-10-30T00:57:31;38.50;;;7.53;;
53245;SDS011;39569;51.090;-1.786;2022-10-30T00:59:59;32.50;;;8.35;;
53245;SDS011;39569;51.090;-1.786;2022-10-30T01:02:26;26.02;;;6.78;;
53245;SDS011;39569;51.090;-1.786;2022-10-30T01:04:53;35.35;;;7.55;;
53245;SDS011;39569;51.090;-1.786;2022-10-30T01:07:20;31.27;;;7.25;;
53245;SDS011;39569;51.090;-1.786;2022-10-30T01:09:47;35.65;;;8.38;;
53245;SDS011;39569;51.090;-1.786;2022-10-30T01:12:16;37.60;;;8.77;;
53245;SDS011;39569;51.090;-1.786;2022-10-30T01:14:43;36.22;;;8.27;;
53245;SDS011;39569;51.090;-1.786;2022-10-30T01:20:14;42.67;;;8.63;;
53245;SDS011;39569;51.090;-1.786;2022-10-30T01:22:55;42.13;;;8.98;;
53245;SDS011;39569;51.090;-1.786;2022-10-30T01:25:33;29.63;;;7.90;;
53245;SDS011;39569;51.090;-1.786;2022-10-30T01:28:14;32.17;;;6.10;;
53245;SDS011;39569;51.090;-1.786;2022-10-30T01:30:57;54.67;;;9.70;;
53245;SDS011;39569;51.090;-1.786;2022-10-30T01:33:35;32.28;;;7.97;;
53245;SDS011;39569;51.090;-1.786;2022-10-30T01:36:17;54.47;;;9.32;;
53245;SDS011;39569;51.090;-1.786;2022-10-30T01:38:52;46.97;;;9.02;;
53245;SDS011;39569;51.090;-1.786;2022-10-30T01:41:21;50.75;;;10.13;;
53245;SDS011;39569;51.090;-1.786;2022-10-30T01:43:51;37.67;;;9.13;;
53245;SDS011;39569;51.090;-1.786;2022-10-30T01:46:28;32.85;;;6.78;;
53245;SDS011;39569;51.090;-1.786;2022-10-30T01:49:06;22.20;;;5.68;;
53245;SDS011;39569;51.090;-1.786;2022-10-30T01:51:48;49.97;;;10.77;;
53245;SDS011;39569;51.090;-1.786;2022-10-30T01:54:26;33.03;;;6.60;;
53245;SDS011;39569;51.090;-1.786;2022-10-30T01:59:30;43.45;;;8.95;;
53245;SDS011;39569;51.090;-1.786;2022-10-30T02:02:02;45.10;;;9.40;;
53245;SDS011;39569;51.090;-1.786;2022-10-30T02:04:29;27.83;;;7.30;;
53245;SDS011;39569;51.090;-1.786;2022-10-30T02:06:57;58.42;;;10.07;;
53245;SDS011;39569;51.090;-1.786;2022-10-30T02:09:24;49.83;;;9.13;;
53245;SDS011;39569;51.090;-1.786;2022-10-30T02:11:51;28.05;;;7.50;;
53245;SDS011;39569;51.090;-1.786;2022-10-30T02:14:20;37.60;;;8.88;;
53245;SDS011;39569;51.090;-1.786;2022-10-30T02:16:53;43.50;;;9.68;;
53245;SDS011;39569;51.090;-1.786;2022-10-30T02:19:23;35.13;;;9.10;;
53245;SDS011;39569;51.090;-1.786;2022-10-30T02:21:52;38.67;;;7.80;;
53245;SDS011;39569;51.090;-1.786;2022-10-30T02:24:19;29.73;;;8.05;;
53245;SDS011;39569;51.090;-1.786;2022-10-30T02:26:46;31.33;;;8.25;;
53245;SDS011;39569;51.090;-1.786;2022-10-30T02:29:12;35.72;;;9.35;;
53245;SDS011;39569;51.090;-1.786;2022-10-30T02:31:39;46.92;;;9.88;;
53245;SDS011;39569;51.090;-1.786;2022-10-30T02:34:06;49.70;;;11.82;;
53245;SDS011;39569;51.090;-1.786;2022-10-30T02:36:33;37.05;;;7.80;;
53245;SDS011;39569;51.090;-1.786;2022-10-30T02:39:01;33.53;;;7.65;;
53245;SDS011;39569;51.090;-1.786;2022-10-30T02:41:28;39.25;;;6.97;;
53245;SDS011;39569;51.090;-1.786;2022-10-30T02:43:55;50.28;;;12.40;;
53245;SDS011;39569;51.090;-1.786;2022-10-30T02:46:21;49.33;;;10.10;;
53245;SDS011;39569;51.090;-1.786;2022-10-30T02:48:48;33.15;;;8.85;;
53245;SDS011;39569;51.090;-1.786;2022-10-30T02:51:15;54.08;;;10.32;;
53245;SDS011;39569;51.090;-1.786;2022-10-30T02:53:42;44.60;;;9.93;;
53245;SDS011;39569;51.090;-1.786;2022-10-30T02:56:11;43.08;;;10.23;;
53245;SDS011;39569;51.090;-1.786;2022-10-30T02:58:40;54.63;;;10.63;;
53245;SDS011;39569;51.090;-1.786;2022-10-30T03:01:07;38.40;;;9.27;;
53245;SDS011;39569;51.090;-1.786;2022-10-30T03:03:34;45.42;;;11.00;;
53245;SDS011;39569;51.090;-1.786;2022-10-30T03:06:02;75.00;;;12.38;;
53245;SDS011;39569;51.090;-1.786;2022-10-30T03:08:30;47.25;;;9.32;;
53245;SDS011;39569;51.090;-1.786;2022-10-30T03:11:00;61.75;;;10.18;;
53245;SDS011;39569;51.090;-1.786;2022-10-30T03:13:29;68.13;;;10.43;;
53245;SDS011;39569;51.090;-1.786;2022-10-30T03:16:00;63.45;;;12.20;;
53245;SDS011;39569;51.090;-1.786;2022-10-30T03:18:27;49.90;;;10.25;;
53245;SDS011;39569;51.090;-1.786;2022-10-30T03:20:55;45.38;;;8.10;;
53245;SDS011;39569;51.090;-1.786;2022-10-30T03:23:23;51.70;;;10.15;;
53245;SDS011;39569;51.090;-1.786;2022-10-30T03:25:53;61.13;;;11.68;;
53245;SDS011;39569;51.090;-1.786;2022-10-30T03:28:21;47.13;;;9.55;;
53245;SDS011;39569;51.090;-1.786;2022-10-30T03:30:50;58.35;;;12.60;;
53245;SDS011;39569;51.090;-1.786;2022-10-30T03:33:17;44.75;;;12.23;;
53245;SDS011;39569;51.090;-1.786;2022-10-30T03:35:44;38.45;;;9.88;;
53245;SDS011;39569;51.090;-1.786;2022-10-30T03:38:11;72.03;;;10.77;;
53245;SDS011;39569;51.090;-1.786;2022-10-30T03:40:38;54.35;;;9.85;;
53245;SDS011;39569;51.090;-1.786;2022-10-30T03:43:05;30.52;;;8.70;;
53245;SDS011;39569;51.090;-1.786;2022-10-30T03:45:32;44.47;;;9.65;;
53245;SDS011;39569;51.090;-1.786;2022-10-30T03:48:02;33.40;;;9.27;;
53245;SDS011;39569;51.090;-1.786;2022-10-30T03:50:30;61.15;;;13.23;;
53245;SDS011;39569;51.090;-1.786;2022-10-30T03:52:58;25.92;;;8.18;;
53245;SDS011;39569;51.090;-1.786;2022-10-30T03:55:25;54.55;;;11.07;;
53245;SDS011;39569;51.090;-1.786;2022-10-30T03:57:51;34.40;;;8.93;;
53245;SDS011;39569;51.090;-1.786;2022-10-30T04:00:18;33.75;;;8.18;;
53245;SDS011;39569;51.090;-1.786;2022-10-30T04:02:45;37.15;;;8.82;;
53245;SDS011;39569;51.090;-1.786;2022-10-30T04:05:15;49.88;;;10.98;;
53245;SDS011;39569;51.090;-1.786;2022-10-30T04:07:43;48.70;;;10.43;;
53245;SDS011;39569;51.090;-1.786;2022-10-30T04:10:11;47.00;;;8.93;;
53245;SDS011;39569;51.090;-1.786;2022-10-30T04:12:39;33.17;;;9.87;;
53245;SDS011;39569;51.090;-1.786;2022-10-30T04:15:07;41.85;;;10.10;;
53245;SDS011;39569;51.090;-1.786;2022-10-30T04:17:34;47.88;;;11.50;;
53245;SDS011;39569;51.090;-1.786;2022-10-30T04:20:00;45.70;;;7.50;;
53245;SDS011;39569;51.090;-1.786;2022-10-30T04:22:29;53.53;;;11.07;;
53245;SDS011;39569;51.090;-1.786;2022-10-30T04:24:55;42.67;;;9.40;;
53245;SDS011;39569;51.090;-1.786;2022-10-30T04:27:22;35.00;;;8.43;;
53245;SDS011;39569;51.090;-1.786;2022-10-30T04:29:49;46.63;;;10.75;;
53245;SDS011;39569;51.090;-1.786;2022-10-30T04:32:16;41.05;;;10.48;;
53245;SDS011;39569;51.090;-1.786;2022-10-30T04:34:44;36.08;;;10.15;;
53245;SDS011;39569;51.090;-1.786;2022-10-30T04:37:10;45.42;;;9.88;;
53245;SDS011;39569;51.090;-1.786;2022-10-30T04:39:39;46.50;;;8.65;;
53245;SDS011;39569;51.090;-1.786;2022-10-30T04:42:05;44.13;;;9.13;;
53245;SDS011;39569;51.090;-1.786;2022-10-30T04:44:32;53.25;;;11.65;;
53245;SDS011;39569;51.090;-1.786;2022-10-30T04:46:59;41.22;;;7.43;;
53245;SDS011;39569;51.090;-1.786;2022-10-30T04:49:26;38.65;;;9.57;;
53245;SDS011;39569;51.090;-1.786;2022-10-30T04:51:52;50.83;;;9.88;;
53245;SDS011;39569;51.090;-1.786;2022-10-30T04:54:19;60.13;;;9.02;;
53245;SDS011;39569;51.090;-1.786;2022-10-30T04:56:47;32.78;;;11.25;;
53245;SDS011;39569;51.090;-1.786;2022-10-30T04:59:14;44.97;;;9.23;;
53245;SDS011;39569;51.090;-1.786;2022-10-30T05:01:41;31.92;;;6.78;;
53245;SDS011;39569;51.090;-1.786;2022-10-30T05:04:08;42.30;;;8.80;;
53245;SDS011;39569;51.090;-1.786;2022-10-30T05:06:34;32.72;;;8.98;;
53245;SDS011;39569;51.090;-1.786;2022-10-30T05:09:01;44.40;;;8.60;;
53245;SDS011;39569;51.090;-1.786;2022-10-30T05:11:28;47.67;;;8.90;;
53245;SDS011;39569;51.090;-1.786;2022-10-30T05:13:57;36.40;;;10.10;;
53245;SDS011;39569;51.090;-1.786;2022-10-30T05:16:24;51.03;;;9.88;;
53245;SDS011;39569;51.090;-1.786;2022-10-30T05:18:50;48.53;;;9.02;;
53245;SDS011;39569;51.090;-1.786;2022-10-30T05:21:17;43.05;;;9.30;;
53245;SDS011;39569;51.090;-1.786;2022-10-30T05:23:44;40.92;;;8.63;;
53245;SDS011;39569;51.090;-1.786;2022-10-30T05:26:11;38.17;;;9.02;;
53245;SDS011;39569;51.090;-1.786;2022-10-30T05:28:37;45.80;;;8.55;;
53245;SDS011;39569;51.090;-1.786;2022-10-30T05:31:08;52.30;;;9.98;;
53245;SDS011;39569;51.090;-1.786;2022-10-30T05:33:34;53.60;;;10.07;;
53245;SDS011;39569;51.090;-1.786;2022-10-30T05:36:01;32.25;;;10.23;;
53245;SDS011;39569;51.090;-1.786;2022-10-30T05:38:28;45.22;;;10.15;;
53245;SDS011;39569;51.090;-1.786;2022-10-30T05:40:55;41.75;;;8.63;;
53245;SDS011;39569;51.090;-1.786;2022-10-30T05:43:22;54.35;;;9.48;;
53245;SDS011;39569;51.090;-1.786;2022-10-30T05:45:48;42.80;;;9.75;;
53245;SDS011;39569;51.090;-1.786;2022-10-30T05:48:16;37.13;;;9.82;;
53245;SDS011;39569;51.090;-1.786;2022-10-30T05:50:43;45.75;;;9.15;;
53245;SDS011;39569;51.090;-1.786;2022-10-30T05:53:10;44.72;;;9.20;;
53245;SDS011;39569;51.090;-1.786;2022-10-30T05:55:37;52.05;;;10.10;;
53245;SDS011;39569;51.090;-1.786;2022-10-30T05:58:04;32.35;;;8.43;;
53245;SDS011;39569;51.090;-1.786;2022-10-30T06:00:32;51.53;;;10.55;;
53245;SDS011;39569;51.090;-1.786;2022-10-30T06:03:00;38.35;;;10.68;;
53245;SDS011;39569;51.090;-1.786;2022-10-30T06:05:30;50.53;;;11.30;;
53245;SDS011;39569;51.090;-1.786;2022-10-30T06:07:58;44.70;;;8.30;;
53245;SDS011;39569;51.090;-1.786;2022-10-30T06:10:25;48.70;;;9.68;;
53245;SDS011;39569;51.090;-1.786;2022-10-30T06:12:52;52.05;;;8.93;;
53245;SDS011;39569;51.090;-1.786;2022-10-30T06:15:19;37.33;;;7.73;;
53245;SDS011;39569;51.090;-1.786;2022-10-30T06:17:46;39.10;;;8.80;;
53245;SDS011;39569;51.090;-1.786;2022-10-30T06:20:13;39.05;;;9.48;;
53245;SDS011;39569;51.090;-1.786;2022-10-30T06:22:42;39.08;;;10.05;;
53245;SDS011;39569;51.090;-1.786;2022-10-30T06:25:18;46.15;;;10.95;;
53245;SDS011;39569;51.090;-1.786;2022-10-30T06:27:45;48.22;;;9.90;;
53245;SDS011;39569;51.090;-1.786;2022-10-30T06:30:12;61.08;;;11.23;;
53245;SDS011;39569;51.090;-1.786;2022-10-30T06:32:39;40.22;;;8.32;;
53245;SDS011;39569;51.090;-1.786;2022-10-30T06:35:06;48.35;;;10.20;;
53245;SDS011;39569;51.090;-1.786;2022-10-30T06:37:33;52.83;;;9.25;;
53245;SDS011;39569;51.090;-1.786;2022-10-30T06:40:05;46.03;;;8.20;;
53245;SDS011;39569;51.090;-1.786;2022-10-30T06:42:39;38.72;;;8.15;;
53245;SDS011;39569;51.090;-1.786;2022-10-30T06:45:07;41.80;;;9.13;;
53245;SDS011;39569;51.090;-1.786;2022-10-30T06:47:35;29.08;;;8.70;;
53245;SDS011;39569;51.090;-1.786;2022-10-30T06:50:02;33.72;;;8.88;;
53245;SDS011;39569;51.090;-1.786;2022-10-30T06:52:29;35.33;;;8.50;;
53245;SDS011;39569;51.090;-1.786;2022-10-30T06:54:56;56.17;;;8.25;;
53245;SDS011;39569;51.090;-1.786;2022-10-30T06:57:24;42.30;;;10.40;;
53245;SDS011;39569;51.090;-1.786;2022-10-30T06:59:51;32.80;;;9.48;;
53245;SDS011;39569;51.090;-1.786;2022-10-30T07:02:18;33.33;;;8.20;;
53245;SDS011;39569;51.090;-1.786;2022-10-30T07:04:45;41.80;;;7.95;;
53245;SDS011;39569;51.090;-1.786;2022-10-30T07:07:11;43.47;;;10.27;;
53245;SDS011;39569;51.090;-1.786;2022-10-30T07:09:38;45.05;;;9.05;;
53245;SDS011;39569;51.090;-1.786;2022-10-30T07:12:05;40.47;;;10.27;;
53245;SDS011;39569;51.090;-1.786;2022-10-30T07:14:34;55.58;;;9.07;;
53245;SDS011;39569;51.090;-1.786;2022-10-30T07:17:01;43.78;;;7.70;;
53245;SDS011;39569;51.090;-1.786;2022-10-30T07:19:28;34.92;;;8.52;;
53245;SDS011;39569;51.090;-1.786;2022-10-30T07:21:55;42.77;;;8.40;;
53245;SDS011;39569;51.090;-1.786;2022-10-30T07:24:22;50.85;;;9.48;;
53245;SDS011;39569;51.090;-1.786;2022-10-30T07:26:48;45.72;;;9.77;;
53245;SDS011;39569;51.090;-1.786;2022-10-30T07:29:15;32.70;;;8.23;;
53245;SDS011;39569;51.090;-1.786;2022-10-30T07:31:45;35.53;;;8.63;;
53245;SDS011;39569;51.090;-1.786;2022-10-30T07:34:13;55.38;;;10.93;;
53245;SDS011;39569;51.090;-1.786;2022-10-30T07:36:40;38.60;;;8.55;;
53245;SDS011;39569;51.090;-1.786;2022-10-30T07:39:07;39.63;;;9.35;;
53245;SDS011;39569;51.090;-1.786;2022-10-30T07:41:34;47.38;;;10.32;;
53245;SDS011;39569;51.090;-1.786;2022-10-30T07:44:01;46.25;;;9.18;;
53245;SDS011;39569;51.090;-1.786;2022-10-30T07:46:28;55.50;;;9.40;;
53245;SDS011;39569;51.090;-1.786;2022-10-30T07:48:56;33.95;;;8.23;;
53245;SDS011;39569;51.090;-1.786;2022-10-30T07:51:22;39.08;;;9.02;;
53245;SDS011;39569;51.090;-1.786;2022-10-30T07:53:50;45.10;;;8.27;;
53245;SDS011;39569;51.090;-1.786;2022-10-30T07:56:16;43.20;;;8.88;;
53245;SDS011;39569;51.090;-1.786;2022-10-30T07:58:43;34.55;;;9.27;;
53245;SDS011;39569;51.090;-1.786;2022-10-30T08:01:10;40.63;;;8.70;;
53245;SDS011;39569;51.090;-1.786;2022-10-30T08:03:37;27.42;;;7.55;;
53245;SDS011;39569;51.090;-1.786;2022-10-30T08:06:05;36.33;;;8.02;;
53245;SDS011;39569;51.090;-1.786;2022-10-30T08:08:32;56.60;;;8.68;;
53245;SDS011;39569;51.090;-1.786;2022-10-30T08:10:59;51.22;;;10.43;;
53245;SDS011;39569;51.090;-1.786;2022-10-30T08:13:26;30.00;;;7.38;;
53245;SDS011;39569;51.090;-1.786;2022-10-30T08:15:52;41.17;;;8.55;;
53245;SDS011;39569;51.090;-1.786;2022-10-30T08:18:19;46.22;;;10.00;;
53245;SDS011;39569;51.090;-1.786;2022-10-30T08:20:47;38.45;;;11.52;;
53245;SDS011;39569;51.090;-1.786;2022-10-30T08:23:16;40.80;;;10.48;;
53245;SDS011;39569;51.090;-1.786;2022-10-30T08:25:44;34.10;;;8.90;;
53245;SDS011;39569;51.090;-1.786;2022-10-30T08:28:11;41.80;;;10.10;;
53245;SDS011;39569;51.090;-1.786;2022-10-30T08:30:38;45.15;;;10.27;;
53245;SDS011;39569;51.090;-1.786;2022-10-30T08:33:06;38.30;;;8.98;;
53245;SDS011;39569;51.090;-1.786;2022-10-30T08:35:37;39.95;;;8.38;;
53245;SDS011;39569;51.090;-1.786;2022-10-30T08:38:04;43.22;;;8.95;;
53245;SDS011;39569;51.090;-1.786;2022-10-30T08:40:32;37.63;;;8.35;;
53245;SDS011;39569;51.090;-1.786;2022-10-30T08:42:59;49.90;;;9.18;;
53245;SDS011;39569;51.090;-1.786;2022-10-30T08:45:26;38.88;;;8.70;;
53245;SDS011;39569;51.090;-1.786;2022-10-30T08:47:55;28.58;;;7.32;;
53245;SDS011;39569;51.090;-1.786;2022-10-30T08:50:23;31.00;;;8.13;;
53245;SDS011;39569;51.090;-1.786;2022-10-30T08:52:50;31.98;;;8.40;;
53245;SDS011;39569;51.090;-1.786;2022-10-30T08:55:17;37.28;;;9.95;;
53245;SDS011;39569;51.090;-1.786;2022-10-30T08:57:45;36.35;;;8.48;;
53245;SDS011;39569;51.090;-1.786;2022-10-30T09:00:12;31.38;;;8.70;;
53245;SDS011;39569;51.090;-1.786;2022-10-30T09:02:39;59.15;;;10.38;;
53245;SDS011;39569;51.090;-1.786;2022-10-30T09:05:06;35.10;;;8.85;;
53245;SDS011;39569;51.090;-1.786;2022-10-30T09:07:34;43.47;;;8.43;;
53245;SDS011;39569;51.090;-1.786;2022-10-30T09:10:01;37.75;;;7.82;;
53245;SDS011;39569;51.090;-1.786;2022-10-30T09:12:28;29.23;;;8.02;;
53245;SDS011;39569;51.090;-1.786;2022-10-30T09:14:56;56.00;;;10.82;;
53245;SDS011;39569;51.090;-1.786;2022-10-30T09:17:23;35.05;;;8.35;;
53245;SDS011;39569;51.090;-1.786;2022-10-30T09:19:50;40.17;;;8.60;;
53245;SDS011;39569;51.090;-1.786;2022-10-30T09:22:17;39.55;;;7.60;;
53245;SDS011;39569;51.090;-1.786;2022-10-30T09:24:44;40.10;;;9.20;;
53245;SDS011;39569;51.090;-1.786;2022-10-30T09:27:10;39.47;;;9.00;;
53245;SDS011;39569;51.090;-1.786;2022-10-30T09:29:37;34.37;;;7.87;;
53245;SDS011;39569;51.090;-1.786;2022-10-30T09:32:05;35.47;;;8.50;;
53245;SDS011;39569;51.090;-1.786;2022-10-30T09:34:34;37.75;;;6.97;;
53245;SDS011;39569;51.090;-1.786;2022-10-30T09:37:01;39.38;;;8.93;;
53245;SDS011;39569;51.090;-1.786;2022-10-30T09:39:28;39.80;;;8.48;;
53245;SDS011;39569;51.090;-1.786;2022-10-30T09:45:01;21.42;;;5.75;;
53245;SDS011;39569;51.090;-1.786;2022-10-30T09:47:40;33.13;;;7.38;;
53245;SDS011;39569;51.090;-1.786;2022-10-30T09:50:19;29.80;;;9.13;;
53245;SDS011;39569;51.090;-1.786;2022-10-30T09:52:54;40.30;;;7.50;;
53245;SDS011;39569;51.090;-1.786;2022-10-30T09:55:31;28.27;;;7.78;;
53245;SDS011;39569;51.090;-1.786;2022-10-30T09:58:06;32.47;;;7.65;;
53245;SDS011;39569;51.090;-1.786;2022-10-30T10:00:45;33.20;;;7.50;;
53245;SDS011;39569;51.090;-1.786;2022-10-30T10:03:19;30.90;;;6.22;;
53245;SDS011;39569;51.090;-1.786;2022-10-30T10:05:58;37.35;;;8.70;;
53245;SDS011;39569;51.090;-1.786;2022-10-30T10:08:28;39.22;;;8.27;;
53245;SDS011;39569;51.090;-1.786;2022-10-30T10:11:01;20.65;;;5.60;;
53245;SDS011;39569;51.090;-1.786;2022-10-30T10:13:34;20.80;;;4.95;;
53245;SDS011;39569;51.090;-1.786;2022-10-30T10:16:06;43.35;;;6.55;;
53245;SDS011;39569;51.090;-1.786;2022-10-30T10:21:19;18.83;;;5.47;;
53245;SDS011;39569;51.090;-1.786;2022-10-30T10:23:49;15.75;;;4.47;;
53245;SDS011;39569;51.090;-1.786;2022-10-30T10:26:22;23.13;;;5.30;;
53245;SDS011;39569;51.090;-1.786;2022-10-30T10:28:56;22.20;;;6.30;;
53245;SDS011;39569;51.090;-1.786;2022-10-30T10:31:36;20.83;;;6.25;;
53245;SDS011;39569;51.090;-1.786;2022-10-30T10:34:16;23.17;;;5.70;;
53245;SDS011;39569;51.090;-1.786;2022-10-30T10:36:52;19.80;;;4.15;;
53245;SDS011;39569;51.090;-1.786;2022-10-30T10:39:37;15.95;;;5.70;;
53245;SDS011;39569;51.090;-1.786;2022-10-30T10:42:15;30.90;;;5.40;;
53245;SDS011;39569;51.090;-1.786;2022-10-30T10:44:52;20.83;;;6.93;;
53245;SDS011;39569;51.090;-1.786;2022-10-30T10:47:35;22.45;;;5.68;;
53245;SDS011;39569;51.090;-1.786;2022-10-30T10:50:22;22.45;;;5.80;;
53245;SDS011;39569;51.090;-1.786;2022-10-30T10:52:51;20.13;;;5.43;;
53245;SDS011;39569;51.090;-1.786;2022-10-30T10:55:23;23.63;;;5.82;;
53245;SDS011;39569;51.090;-1.786;2022-10-30T10:57:53;21.38;;;5.13;;
53245;SDS011;39569;51.090;-1.786;2022-10-30T11:00:24;24.10;;;5.97;;
53245;SDS011;39569;51.090;-1.786;2022-10-30T11:02:55;29.85;;;7.40;;
53245;SDS011;39569;51.090;-1.786;2022-10-30T11:05:31;23.58;;;6.50;;
53245;SDS011;39569;51.090;-1.786;2022-10-30T11:08:02;25.13;;;6.95;;
53245;SDS011;39569;51.090;-1.786;2022-10-30T11:10:36;23.77;;;6.28;;
53245;SDS011;39569;51.090;-1.786;2022-10-30T11:13:03;36.60;;;7.28;;
53245;SDS011;39569;51.090;-1.786;2022-10-30T11:15:36;22.33;;;6.65;;
53245;SDS011;39569;51.090;-1.786;2022-10-30T11:18:11;23.80;;;6.20;;
53245;SDS011;39569;51.090;-1.786;2022-10-30T11:20:43;35.05;;;8.48;;
53245;SDS011;39569;51.090;-1.786;2022-10-30T11:23:29;31.58;;;6.32;;
53245;SDS011;39569;51.090;-1.786;2022-10-30T11:25:57;26.73;;;7.20;;
53245;SDS011;39569;51.090;-1.786;2022-10-30T11:31:17;25.50;;;7.10;;
53245;SDS011;39569;51.090;-1.786;2022-10-30T11:33:46;28.30;;;6.60;;
53245;SDS011;39569;51.090;-1.786;2022-10-30T11:36:15;19.88;;;5.57;;
53245;SDS011;39569;51.090;-1.786;2022-10-30T11:38:43;29.38;;;6.97;;
53245;SDS011;39569;51.090;-1.786;2022-10-30T11:41:10;23.40;;;5.60;;
53245;SDS011;39569;51.090;-1.786;2022-10-30T11:43:39;25.38;;;6.53;;
53245;SDS011;39569;51.090;-1.786;2022-10-30T11:46:07;9.90;;;3.53;;
53245;SDS011;39569;51.090;-1.786;2022-10-30T11:48:37;19.60;;;4.40;;
53245;SDS011;39569;51.090;-1.786;2022-10-30T11:51:08;10.23;;;3.40;;
53245;SDS011;39569;51.090;-1.786;2022-10-30T11:53:39;15.35;;;5.38;;
53245;SDS011;39569;51.090;-1.786;2022-10-30T11:56:14;20.88;;;5.75;;
53245;SDS011;39569;51.090;-1.786;2022-10-30T11:58:43;28.45;;;6.05;;
53245;SDS011;39569;51.090;-1.786;2022-10-30T12:01:13;25.02;;;5.40;;
53245;SDS011;39569;51.090;-1.786;2022-10-30T12:03:46;13.50;;;4.27;;
53245;SDS011;39569;51.090;-1.786;2022-10-30T12:06:16;17.10;;;4.75;;
53245;SDS011;39569;51.090;-1.786;2022-10-30T12:08:58;11.70;;;6.07;;
53245;SDS011;39569;51.090;-1.786;2022-10-30T12:11:26;21.02;;;6.32;;
53245;SDS011;39569;51.090;-1.786;2022-10-30T12:13:55;23.83;;;7.60;;
53245;SDS011;39569;51.090;-1.786;2022-10-30T12:16:23;21.33;;;5.65;;
53245;SDS011;39569;51.090;-1.786;2022-10-30T12:18:52;19.17;;;5.60;;
53245;SDS011;39569;51.090;-1.786;2022-10-30T12:21:23;18.92;;;4.75;;
53245;SDS011;39569;51.090;-1.786;2022-10-30T12:23:54;35.30;;;8.35;;
53245;SDS011;39569;51.090;-1.786;2022-10-30T12:26:26;30.23;;;6.63;;
53245;SDS011;39569;51.090;-1.786;2022-10-30T12:28:56;25.13;;;8.05;;
53245;SDS011;39569;51.090;-1.786;2022-10-30T12:31:29;14.23;;;4.07;;
53245;SDS011;39569;51.090;-1.786;2022-10-30T12:34:04;21.92;;;6.25;;
53245;SDS011;39569;51.090;-1.786;2022-10-30T12:36:43;26.08;;;5.90;;
53245;SDS011;39569;51.090;-1.786;2022-10-30T12:39:14;15.35;;;5.30;;
53245;SDS011;39569;51.090;-1.786;2022-10-30T12:41:49;20.67;;;5.43;;
53245;SDS011;39569;51.090;-1.786;2022-10-30T12:44:22;18.55;;;4.80;;
53245;SDS011;39569;51.090;-1.786;2022-10-30T12:46:54;29.50;;;7.60;;
53245;SDS011;39569;51.090;-1.786;2022-10-30T12:49:27;21.67;;;5.25;;
53245;SDS011;39569;51.090;-1.786;2022-10-30T12:52:03;26.90;;;6.60;;
53245;SDS011;39569;51.090;-1.786;2022-10-30T12:54:34;34.17;;;6.80;;
53245;SDS011;39569;51.090;-1.786;2022-10-30T12:57:09;27.98;;;6.07;;
53245;SDS011;39569;51.090;-1.786;2022-10-30T12:59:42;26.73;;;6.68;;
53245;SDS011;39569;51.090;-1.786;2022-10-30T13:02:24;25.95;;;6.75;;
53245;SDS011;39569;51.090;-1.786;2022-10-30T13:05:00;30.08;;;7.78;;
53245;SDS011;39569;51.090;-1.786;2022-10-30T13:07:32;31.65;;;7.68;;
53245;SDS011;39569;51.090;-1.786;2022-10-30T13:10:12;21.10;;;7.28;;
53245;SDS011;39569;51.090;-1.786;2022-10-30T13:12:50;38.47;;;8.43;;
53245;SDS011;39569;51.090;-1.786;2022-10-30T13:15:25;29.27;;;8.95;;
53245;SDS011;39569;51.090;-1.786;2022-10-30T13:17:54;17.25;;;5.95;;
53245;SDS011;39569;51.090;-1.786;2022-10-30T13:20:23;17.52;;;5.80;;
53245;SDS011;39569;51.090;-1.786;2022-10-30T13:22:53;27.85;;;5.90;;
53245;SDS011;39569;51.090;-1.786;2022-10-30T13:25:25;23.90;;;7.57;;
53245;SDS011;39569;51.090;-1.786;2022-10-30T13:27:59;24.08;;;7.55;;
53245;SDS011;39569;51.090;-1.786;2022-10-30T13:30:33;32.72;;;7.05;;
53245;SDS011;39569;51.090;-1.786;2022-10-30T13:33:05;14.43;;;4.55;;
53245;SDS011;39569;51.090;-1.786;2022-10-30T13:35:41;23.55;;;6.75;;
53245;SDS011;39569;51.090;-1.786;2022-10-30T13:38:23;9.02;;;2.15;;
53245;SDS011;39569;51.090;-1.786;2022-10-30T13:41:01;26.60;;;6.30;;
53245;SDS011;39569;51.090;-1.786;2022-10-30T13:43:39;19.25;;;5.80;;
53245;SDS011;39569;51.090;-1.786;2022-10-30T13:49:11;23.57;;;5.80;;
53245;SDS011;39569;51.090;-1.786;2022-10-30T13:51:52;32.45;;;5.32;;
53245;SDS011;39569;51.090;-1.786;2022-10-30T13:54:26;30.95;;;7.13;;
53245;SDS011;39569;51.090;-1.786;2022-10-30T13:56:55;23.13;;;5.28;;
53245;SDS011;39569;51.090;-1.786;2022-10-30T13:59:35;19.10;;;5.50;;
53245;SDS011;39569;51.090;-1.786;2022-10-30T14:02:15;20.48;;;4.82;;
53245;SDS011;39569;51.090;-1.786;2022-10-30T14:04:51;25.83;;;7.97;;
53245;SDS011;39569;51.090;-1.786;2022-10-30T14:07:25;25.85;;;6.32;;
53245;SDS011;39569;51.090;-1.786;2022-10-30T14:10:01;23.38;;;5.57;;
53245;SDS011;39569;51.090;-1.786;2022-10-30T14:12:43;16.50;;;5.32;;
53245;SDS011;39569;51.090;-1.786;2022-10-30T14:15:16;21.35;;;5.47;;
53245;SDS011;39569;51.090;-1.786;2022-10-30T14:18:16;18.98;;;6.72;;
53245;SDS011;39569;51.090;-1.786;2022-10-30T14:20:50;30.38;;;7.05;;
53245;SDS011;39569;51.090;-1.786;2022-10-30T14:23:19;22.27;;;5.35;;
53245;SDS011;39569;51.090;-1.786;2022-10-30T14:28:38;23.63;;;5.95;;
53245;SDS011;39569;51.090;-1.786;2022-10-30T14:31:08;19.52;;;5.72;;
53245;SDS011;39569;51.090;-1.786;2022-10-30T14:33:43;48.40;;;7.80;;
53245;SDS011;39569;51.090;-1.786;2022-10-30T14:36:12;32.40;;;6.47;;
53245;SDS011;39569;51.090;-1.786;2022-10-30T14:38:50;14.75;;;4.40;;
53245;SDS011;39569;51.090;-1.786;2022-10-30T14:41:34;18.52;;;5.22;;
53245;SDS011;39569;51.090;-1.786;2022-10-30T14:44:22;27.40;;;5.50;;
53245;SDS011;39569;51.090;-1.786;2022-10-30T14:47:21;22.38;;;6.65;;
53245;SDS011;39569;51.090;-1.786;2022-10-30T14:49:56;27.08;;;5.85;;
53245;SDS011;39569;51.090;-1.786;2022-10-30T14:52:33;29.80;;;6.88;;
53245;SDS011;39569;51.090;-1.786;2022-10-30T14:55:19;31.35;;;7.20;;